Terminal Aerodrome Forecast
Issued by NWS Charleston, WV

Current Version | Previous Version | Text Only | Print | Product List | Glossary Off
Versions: 1 2 3 4 5 6 7 8 9 10 11 12 13 14 15 16 17 18 19 20 21 22 23 24

000
FTUS41 KRLX 230900 AAA
TAFPKB
TAF AMD
KPKB 230905Z 2309/2406 12005KT 6SM -RA BKN060 OVC080
     FM231200 15006KT 6SM -SHRA BKN025
     FM231500 13005KT P6SM VCSH BKN035
     FM232300 14004KT 6SM BR OVC040
     FM240200 VRB03KT P6SM -SHRA OVC040=

USA.gov is the U.S. government's official web portal to all federal, state and local government web resources and services.